Capitol Logistics 245


KMIA
Miami International Airport
Miami, Florida, US
MKJP
Norman Manley International Airport
Kingston, , JM

Route Details

Aircraft Information
Primary: Boeing 767-300BDSF
Backup: Not Available
Route Data
Distance: 518nm
Sched. Duration: 1h 19m
Avg. Duration: 1h 41m (+22m)
Times Flown: 17
Recm'd Route: EONNS2 EONNS A509 URSUS UA301 MLY
Planned Altitude: 36,000ft
Origin Wx: KMIA 190153Z 00000KT 10SM FEW040 SCT250 18/08 A3022 RMK AO2 SLP234 T01780083 $
Dest. Wx: MKJP 190200Z 36008KT 9999 FEW022 27/17 Q1016
Notes:

Financial History
Total Freight: 988,515lbs
Average Load: 58,148lbs/flt
Fuel Used: 218,976lbs
Avg. Fuel Used: 12,881lbs/flt
Fuel Expense: $269,340
Avg. Fuel Expense: $15,844
Avg. Fuel Cost: $1.23/lbs
Total Gross Income: $1,357,242
Pilot Pay: $2,163
Total Expenses: $146,435
Total Revenue: $936,721
Average Revenue: $79,837.76